Dades meteomassalio
Diari Summary for Febrer 15, 2018 Units:  English    Metric   Both
« Previous Day
Next Day »
Diari Semanal Mensual Anual Personalitzat
  Maxima: Minima: Mijana:
Temperatura: TemperatureC °F 1.7 °F 9.8 °F
Rosada: DewpointC °F -0.3 °F 5.2 °F
Humitat: Humidity % 53 % 74 %
Velocitat del vent: WindSpeedKMH mph 0.0 mph 4 mph
Racha vent: WindSpeedGustKMH mph - -
Vent:- - WSW
Pressio: PressurehPa in 1021.6 in -
Pluja: 0.0 in    
Historical Graphs
 
 
Tabular Data for Febrer 15, 2018
Time Temperature Dew Point Pressure Wind Wind Speed Wind Gust Humidity Rainfall Rate (Hourly) solar Conditions
TemperatureC °F DewpointC °F PressurehPa in Calm     Humidity % HourlyPrecipMM in SolarRadiationWatts/m^2 W/m2 Conditions
00:00 6.7 °F 2.7 °F 1021.6 in WNW 7.4 mph 7.4 mph 76 % 0.0 in 0.0 W/m2 CLR
00:05 6.7 °F 2.7 °F 1021.6 in NW 6.4 mph 6.4 mph 76 % 0.0 in 0.0 W/m2 RA
00:10 6.1 °F 2.2 °F 1021.6 in NW 8.0 mph 8.0 mph 76 % 0.0 in 0.0 W/m2 CLR
00:15 6.1 °F 2.2 °F 1021.6 in NW 7.4 mph 7.4 mph 76 % 0.0 in 0.0 W/m2 CLR
00:20 6.1 °F 2.2 °F 1021.6 in NW 7.4 mph 7.4 mph 76 % 0.0 in 0.0 W/m2 CLR
00:25 6.1 °F 2.2 °F 1021.6 in NW 11.1 mph 11.1 mph 76 % 0.0 in 0.0 W/m2 CLR
00:30 6.1 °F 2.2 °F 1021.6 in NNW 11.1 mph 11.1 mph 76 % 0.0 in 0.0 W/m2 CLR
00:35 6.1 °F 2.2 °F 1021.6 in NW 11.1 mph 11.1 mph 76 % 0.0 in 0.0 W/m2 CLR
00:40 5.6 °F 1.7 °F 1021.6 in NW 13.0 mph 13.0 mph 76 % 0.0 in 0.0 W/m2 CLR
00:45 5.6 °F 1.7 °F 1021.6 in NNW 13.0 mph 13.0 mph 76 % 0.0 in 0.0 W/m2 CLR
00:50 5.6 °F 2.0 °F 1021.6 in NNW 11.1 mph 11.1 mph 78 % 0.0 in 0.0 W/m2 CLR
00:55 6.7 °F 3.3 °F 1021.6 in NNW 9.3 mph 9.3 mph 79 % 0.0 in 0.0 W/m2 CLR
01:00 7.8 °F 4.4 °F 1021.6 in NNW 11.1 mph 11.1 mph 79 % 0.0 in 0.0 W/m2 CLR
01:05 8.3 °F 4.9 °F 1021.6 in NW 11.1 mph 11.1 mph 79 % 0.0 in 0.0 W/m2 CLR
01:10 8.9 °F 5.4 °F 1021.9 in NW 5.6 mph 5.6 mph 79 % 0.0 in 0.0 W/m2 CLR
01:15 8.3 °F 4.7 °F 1021.9 in Calm     78 % 0.0 in 0.0 W/m2 CLR
01:20 8.3 °F 4.7 °F 1021.9 in WNW 9.7 mph 9.7 mph 78 % 0.0 in 0.0 W/m2 CLR
01:25 8.3 °F 4.7 °F 1021.9 in WNW 9.3 mph 9.3 mph 78 % 0.0 in 0.0 W/m2 CLR
01:30 7.8 °F 4.2 °F 1021.9 in WNW 11.1 mph 11.1 mph 78 % 0.0 in 0.0 W/m2 CLR
01:35 7.2 °F 3.4 °F 1021.9 in Calm     77 % 0.0 in 0.0 W/m2 CLR
01:40 6.7 °F 3.1 °F 1022.2 in Calm     78 % 0.0 in 0.0 W/m2 CLR
01:45 6.7 °F 3.1 °F 1021.9 in Calm     78 % 0.0 in 0.0 W/m2 CLR
01:50 6.1 °F 2.6 °F 1022.2 in WNW 11.1 mph 11.1 mph 78 % 0.0 in 0.0 W/m2 CLR
01:55 6.1 °F 2.6 °F 1022.2 in WNW 13.0 mph 13.0 mph 78 % 0.0 in 0.0 W/m2 CLR
02:00 6.1 °F 2.6 °F 1021.9 in WNW 11.3 mph 11.3 mph 78 % 0.0 in 0.0 W/m2 CLR
02:05 6.1 °F 2.6 °F 1021.9 in NW 11.3 mph 11.3 mph 78 % 0.0 in 0.0 W/m2 CLR
02:10 6.1 °F 2.6 °F 1022.2 in WNW 8.0 mph 8.0 mph 78 % 0.0 in 0.0 W/m2 CLR
02:15 6.1 °F 2.6 °F 1022.2 in WNW 8.0 mph 8.0 mph 78 % 0.0 in 0.0 W/m2 CLR
02:20 6.1 °F 2.6 °F 1022.2 in WNW 7.4 mph 7.4 mph 78 % 0.0 in 0.0 W/m2 CLR
02:25 5.6 °F 2.0 °F 1022.2 in Calm     78 % 0.0 in 0.0 W/m2 CLR
02:30 5.6 °F 1.8 °F 1022.2 in Calm     77 % 0.0 in 0.0 W/m2 CLR
02:35 5.0 °F 1.8 °F 1022.6 in Calm     80 % 0.0 in 0.0 W/m2 CLR
02:40 5.0 °F 2.0 °F 1022.6 in West 9.3 mph 9.3 mph 81 % 0.0 in 0.0 W/m2 CLR
02:45 5.0 °F 2.0 °F 1022.6 in WNW 8.0 mph 8.0 mph 81 % 0.0 in 0.0 W/m2 CLR
02:50 4.4 °F 1.4 °F 1022.6 in WNW 7.4 mph 7.4 mph 81 % 0.0 in 0.0 W/m2 CLR
02:55 4.4 °F 1.4 °F 1022.6 in WNW 7.4 mph 7.4 mph 81 % 0.0 in 0.0 W/m2 CLR
03:00 4.4 °F 1.3 °F 1022.9 in Calm     80 % 0.0 in 0.0 W/m2 CLR
03:05 4.4 °F 1.1 °F 1022.9 in Calm     79 % 0.0 in 0.0 W/m2 CLR
03:10 4.4 °F 1.1 °F 1022.9 in Calm     79 % 0.0 in 0.0 W/m2 CLR
03:15 4.4 °F 1.3 °F 1022.6 in Calm     80 % 0.0 in 0.0 W/m2 CLR
03:20 4.4 °F 1.8 °F 1022.6 in Calm     83 % 0.0 in 0.0 W/m2 CLR
03:25 4.4 °F 1.8 °F 1022.9 in WNW 5.6 mph 5.6 mph 83 % 0.0 in 0.0 W/m2 CLR
03:30 4.4 °F 1.6 °F 1022.9 in Calm     82 % 0.0 in 0.0 W/m2 CLR
03:35 3.9 °F 1.3 °F 1022.9 in Calm     83 % 0.0 in 0.0 W/m2 CLR
03:40 3.9 °F 1.4 °F 1022.9 in Calm     84 % 0.0 in 0.0 W/m2 CLR
03:45 3.9 °F 1.6 °F 1022.9 in WNW 5.6 mph 5.6 mph 85 % 0.0 in 0.0 W/m2 CLR
03:50 3.9 °F 1.9 °F 1022.9 in WNW 9.7 mph 9.7 mph 87 % 0.0 in 0.0 W/m2 CLR
03:55 3.9 °F 1.8 °F 1022.9 in WNW 4.8 mph   86 % 0.0 in 0.0 W/m2 CLR
04:00 3.9 °F 1.3 °F 1022.9 in Calm     83 % 0.0 in 0.0 W/m2 CLR
04:05 3.3 °F 0.6 °F 1022.9 in Calm     82 % 0.0 in 0.0 W/m2 CLR
04:10 3.3 °F 0.7 °F 1022.9 in Calm     83 % 0.0 in 0.0 W/m2 CLR
04:15 3.3 °F 0.9 °F 1022.9 in Calm     84 % 0.0 in 0.0 W/m2 CLR
04:20 3.3 °F 0.9 °F 1022.9 in Calm     84 % 0.0 in 0.0 W/m2 CLR
04:25 3.3 °F 1.1 °F 1022.9 in Calm     85 % 0.0 in 0.0 W/m2 CLR
04:30 3.3 °F 1.4 °F 1022.9 in Calm     87 % 0.0 in 0.0 W/m2 CLR
04:35 3.3 °F 1.2 °F 1022.9 in Calm     86 % 0.0 in 0.0 W/m2 CLR
04:40 3.3 °F 0.4 °F 1022.9 in Calm     81 % 0.0 in 0.0 W/m2 CLR
04:45 2.8 °F -0.2 °F 1023.2 in Calm     81 % 0.0 in 0.0 W/m2 CLR
04:50 2.8 °F -0.2 °F 1023.2 in Calm     81 % 0.0 in 0.0 W/m2 CLR
04:55 2.8 °F 0.0 °F 1023.2 in Calm     82 % 0.0 in 0.0 W/m2 CLR
05:00 2.8 °F -0.2 °F 1023.2 in Calm     81 % 0.0 in 0.0 W/m2 CLR
05:06 2.8 °F 0.0 °F 1023.2 in Calm     82 % 0.0 in 0.0 W/m2 CLR
05:11 2.8 °F 0.3 °F 1023.2 in Calm     84 % 0.0 in 0.0 W/m2 CLR
05:16 2.8 °F 0.3 °F 1023.2 in Calm     84 % 0.0 in 0.0 W/m2 CLR
05:21 2.8 °F 0.5 °F 1023.2 in Calm     85 % 0.0 in 0.0 W/m2 CLR
05:26 2.2 °F 0.1 °F 1023.2 in Calm     86 % 0.0 in 0.0 W/m2 CLR
05:31 2.2 °F 0.1 °F 1023.2 in Calm     86 % 0.0 in 0.0 W/m2 CLR
05:36 2.2 °F -0.2 °F 1023.2 in Calm     84 % 0.0 in 0.0 W/m2 CLR
05:41 2.2 °F -0.1 °F 1023.2 in Calm     85 % 0.0 in 0.0 W/m2 CLR
05:46 2.2 °F 0.1 °F 1023.6 in Calm     86 % 0.0 in 0.0 W/m2 CLR
05:51 2.8 °F 1.0 °F 1023.6 in Calm     88 % 0.0 in 0.0 W/m2 CLR
05:56 2.2 °F 0.3 °F 1023.6 in Calm     87 % 0.0 in 0.0 W/m2 CLR
06:01 2.2 °F 0.3 °F 1023.6 in Calm     87 % 0.0 in 0.0 W/m2 CLR
06:06 2.2 °F 0.3 °F 1023.2 in Calm     87 % 0.0 in 0.0 W/m2 CLR
06:11 2.2 °F 0.3 °F 1023.2 in Calm     87 % 0.0 in 0.0 W/m2 CLR
06:16 2.2 °F 0.3 °F 1023.6 in Calm     87 % 0.0 in 0.0 W/m2 CLR
06:21 2.2 °F 0.3 °F 1023.6 in Calm     87 % 0.0 in 0.0 W/m2 CLR
06:26 1.7 °F -0.1 °F 1023.6 in Calm     88 % 0.0 in 0.0 W/m2 CLR
06:31 2.2 °F 0.6 °F 1023.6 in Calm     89 % 0.0 in 0.0 W/m2 CLR
06:36 2.2 °F 0.6 °F 1023.9 in Calm     89 % 0.0 in 0.0 W/m2 CLR
06:41 2.2 °F 0.6 °F 1023.9 in Calm     89 % 0.0 in 0.0 W/m2 CLR
06:46 2.2 °F 0.6 °F 1023.9 in WNW 1.6 mph   89 % 0.0 in 0.0 W/m2 CLR
06:51 2.2 °F 0.6 °F 1023.9 in NW 9.3 mph 9.3 mph 89 % 0.0 in 0.0 W/m2 CLR
06:56 2.2 °F 0.1 °F 1023.9 in Calm     86 % 0.0 in 0.0 W/m2 CLR
07:01 2.2 °F 0.1 °F 1023.9 in Calm     86 % 0.0 in 0.0 W/m2 CLR
07:06 2.2 °F 0.1 °F 1023.9 in Calm     86 % 0.0 in 0.0 W/m2 CLR
07:11 2.2 °F -0.1 °F 1023.9 in Calm     85 % 0.0 in 0.0 W/m2 CLR
07:16 2.2 °F 0.1 °F 1024.3 in Calm     86 % 0.0 in 0.0 W/m2 CLR
07:21 2.2 °F 0.1 °F 1024.3 in Calm     86 % 0.0 in 0.0 W/m2 CLR
07:26 2.2 °F 0.3 °F 1024.3 in Calm     87 % 0.0 in 0.0 W/m2 CLR
07:31 2.2 °F 0.4 °F 1024.3 in Calm     88 % 0.0 in 0.0 W/m2 CLR
07:36 2.2 °F 0.4 °F 1024.3 in Calm     88 % 0.0 in 0.0 W/m2 CLR
07:41 2.2 °F 0.6 °F 1024.3 in Calm     89 % 0.0 in 0.0 W/m2 CLR
07:46 2.2 °F 0.6 °F 1024.3 in Calm     89 % 0.0 in 0.0 W/m2 OVC
07:51 2.2 °F 0.3 °F 1024.6 in Calm     87 % 0.0 in 0.0 W/m2 OVC
07:56 1.7 °F -0.3 °F 1024.6 in Calm     87 % 0.0 in 7.0 W/m2 OVC
08:01 1.7 °F -0.1 °F 1024.6 in Calm     88 % 0.0 in 9.0 W/m2 BKN
08:06 1.7 °F -0.1 °F 1024.9 in Calm     88 % 0.0 in 12.0 W/m2 BKN
08:11 1.7 °F -0.1 °F 1024.9 in Calm     88 % 0.0 in 14.0 W/m2 BKN
08:16 1.7 °F 0.1 °F 1025.3 in Calm     89 % 0.0 in 18.0 W/m2 BKN
08:21 1.7 °F -0.1 °F 1025.3 in Calm     88 % 0.0 in 19.0 W/m2 BKN
08:26 1.7 °F -0.1 °F 1025.3 in Calm     88 % 0.0 in 30.0 W/m2 BKN
08:31 1.7 °F -0.1 °F 1025.3 in Calm     88 % 0.0 in 40.0 W/m2 BKN
08:36 2.2 °F 0.4 °F 1025.3 in Calm     88 % 0.0 in 44.0 W/m2 BKN
08:41 2.2 °F 0.4 °F 1025.3 in Calm     88 % 0.0 in 60.0 W/m2 SCT
08:46 2.2 °F 0.6 °F 1025.6 in Calm     89 % 0.0 in 69.0 W/m2 FEW
08:51 2.2 °F 0.4 °F 1025.6 in Calm     88 % 0.0 in 65.0 W/m2 SCT
08:56 2.8 °F 0.7 °F 1026.0 in Calm     86 % 0.0 in 60.0 W/m2 SCT
09:01 3.3 °F 1.1 °F 1026.0 in Calm     85 % 0.0 in 44.0 W/m2 SCT
09:06 3.3 °F 1.1 °F 1025.6 in Calm     85 % 0.0 in 49.0 W/m2 SCT
09:11 3.3 °F 1.2 °F 1026.0 in Calm     86 % 0.0 in 67.0 W/m2 SCT
09:16 3.3 °F 1.2 °F 1026.0 in Calm     86 % 0.0 in 84.0 W/m2 FEW
09:21 3.9 °F 1.8 °F 1026.0 in Calm     86 % 0.0 in 135.0 W/m2 CLR
09:26 3.9 °F 1.6 °F 1026.0 in Calm     85 % 0.0 in 195.0 W/m2 CLR
09:31 4.4 °F 2.2 °F 1025.6 in Calm     85 % 0.0 in 202.0 W/m2 CLR
09:36 5.0 °F 2.2 °F 1026.0 in Calm     82 % 0.0 in 241.0 W/m2 CLR
09:41 5.0 °F 1.7 °F 1026.0 in Calm     79 % 0.0 in 257.0 W/m2 CLR
09:46 5.6 °F 2.0 °F 1026.0 in Calm     78 % 0.0 in 271.0 W/m2 CLR
09:51 6.1 °F 2.6 °F 1026.0 in Calm     78 % 0.0 in 283.0 W/m2 CLR
09:56 6.7 °F 2.7 °F 1026.0 in Calm     76 % 0.0 in 301.0 W/m2 CLR
10:01 6.7 °F 2.6 °F 1026.3 in Calm     75 % 0.0 in 313.0 W/m2 CLR
10:06 7.2 °F 2.9 °F 1026.0 in Calm     74 % 0.0 in 327.0 W/m2 CLR
10:12 7.8 °F 3.2 °F 1026.0 in Calm     73 % 0.0 in 339.0 W/m2 CLR
10:16 7.8 °F 3.1 °F 1026.3 in Calm     72 % 0.0 in 353.0 W/m2 CLR
10:22 8.3 °F 3.4 °F 1026.3 in Calm     71 % 0.0 in 364.0 W/m2 CLR
10:27 9.4 °F 4.1 °F 1026.3 in NW 7.4 mph 7.4 mph 69 % 0.0 in 378.0 W/m2 CLR
10:32 10.0 °F 4.3 °F 1026.3 in NW 20.4 mph 20.4 mph 68 % 0.0 in 388.0 W/m2 CLR
10:37 11.1 °F 5.6 °F 1026.3 in WNW 11.3 mph 11.3 mph 69 % 0.0 in 403.0 W/m2 CLR
10:42 12.8 °F 7.0 °F 1026.3 in NNW 9.3 mph 9.3 mph 68 % 0.0 in 413.0 W/m2 CLR
10:47 13.3 °F 7.3 °F 1026.3 in NW 14.8 mph 14.8 mph 67 % 0.0 in 424.0 W/m2 CLR
10:52 14.4 °F 8.6 °F 1026.3 in WNW 18.5 mph 18.5 mph 68 % 0.0 in 434.0 W/m2 CLR
10:57 15.0 °F 8.9 °F 1026.3 in NNW 20.4 mph 20.4 mph 67 % 0.0 in 446.0 W/m2 CLR
11:02 15.0 °F 8.9 °F 1026.3 in NNW 18.5 mph 18.5 mph 67 % 0.0 in 455.0 W/m2 CLR
11:07 15.6 °F 9.2 °F 1026.3 in NW 11.1 mph 11.1 mph 66 % 0.0 in 466.0 W/m2 CLR
11:12 15.6 °F 9.2 °F 1026.3 in North 14.8 mph 14.8 mph 66 % 0.0 in 475.0 W/m2 CLR
11:17 15.6 °F 9.4 °F 1026.6 in NNW 24.1 mph 24.1 mph 67 % 0.0 in 482.0 W/m2 CLR
11:22 16.1 °F 9.8 °F 1026.3 in NNW 14.8 mph 14.8 mph 66 % 0.0 in 494.0 W/m2 CLR
11:27 16.1 °F 9.8 °F 1026.3 in NNW 13.0 mph 13.0 mph 66 % 0.0 in 504.0 W/m2 CLR
11:32 16.1 °F 9.5 °F 1026.3 in NNW 18.5 mph 18.5 mph 65 % 0.0 in 512.0 W/m2 CLR
11:37 16.7 °F 10.1 °F 1026.3 in NW 18.5 mph 18.5 mph 65 % 0.0 in 519.0 W/m2 CLR
11:42 16.7 °F 9.8 °F 1026.3 in WNW 7.4 mph 7.4 mph 64 % 0.0 in 527.0 W/m2 CLR
11:47 16.7 °F 9.8 °F 1026.3 in NNW 22.2 mph 22.2 mph 64 % 0.0 in 534.0 W/m2 CLR
11:52 17.2 °F 10.1 °F 1026.3 in NW 18.5 mph 18.5 mph 63 % 0.0 in 543.0 W/m2 CLR
11:57 17.2 °F 10.3 °F 1026.3 in North 20.4 mph 20.4 mph 64 % 0.0 in 548.0 W/m2 CLR
12:02 17.2 °F 10.3 °F 1026.3 in NNW 20.9 mph 20.9 mph 64 % 0.0 in 554.0 W/m2 CLR
12:07 17.8 °F 10.9 °F 1026.3 in North 24.1 mph 24.1 mph 64 % 0.0 in 561.0 W/m2 CLR
12:12 17.2 °F 10.1 °F 1026.3 in North 22.2 mph 22.2 mph 63 % 0.0 in 566.0 W/m2 CLR
12:17 17.8 °F 10.4 °F 1026.3 in North 29.6 mph 29.6 mph 62 % 0.0 in 571.0 W/m2 CLR
12:22 17.8 °F 10.9 °F 1026.0 in NNW 25.9 mph 25.9 mph 64 % 0.0 in 575.0 W/m2 CLR
12:27 17.8 °F 10.6 °F 1026.0 in NW 20.4 mph 20.4 mph 63 % 0.0 in 580.0 W/m2 CLR
12:32 17.8 °F 10.4 °F 1026.0 in NNW 31.5 mph 31.5 mph 62 % 0.0 in 585.0 W/m2 CLR
12:37 17.8 °F 9.9 °F 1025.6 in NNW 18.5 mph 18.5 mph 60 % 0.0 in 587.0 W/m2 CLR
12:42 18.3 °F 10.7 °F 1025.6 in North 25.7 mph 25.7 mph 61 % 0.0 in 589.0 W/m2 CLR
12:47 18.3 °F 10.7 °F 1025.6 in NNW 16.7 mph 16.7 mph 61 % 0.0 in 592.0 W/m2 CLR
12:52 18.3 °F 10.7 °F 1025.6 in North 24.1 mph 24.1 mph 61 % 0.0 in 594.0 W/m2 CLR
12:57 18.3 °F 10.7 °F 1025.6 in North 20.4 mph 20.4 mph 61 % 0.0 in 596.0 W/m2 CLR
13:02 18.3 °F 10.7 °F 1025.6 in NW 18.5 mph 18.5 mph 61 % 0.0 in 598.0 W/m2 CLR
13:07 18.3 °F 10.7 °F 1025.6 in NW 20.4 mph 20.4 mph 61 % 0.0 in 598.0 W/m2 CLR
13:12 18.3 °F 10.4 °F 1025.6 in North 18.5 mph 18.5 mph 60 % 0.0 in 598.0 W/m2 CLR
13:17 18.9 °F 10.7 °F 1025.6 in NNW 13.0 mph 13.0 mph 59 % 0.0 in 596.0 W/m2 CLR
13:22 18.9 °F 10.7 °F 1025.3 in WNW 13.0 mph 13.0 mph 59 % 0.0 in 598.0 W/m2 CLR
13:27 18.9 °F 10.9 °F 1025.3 in North 14.8 mph 14.8 mph 60 % 0.0 in 596.0 W/m2 CLR
13:32 18.9 °F 10.9 °F 1025.3 in Calm     60 % 0.0 in 596.0 W/m2 CLR
13:37 18.9 °F 10.9 °F 1025.3 in NNE 1.9 mph   60 % 0.0 in 596.0 W/m2 CLR
13:42 18.9 °F 10.9 °F 1025.3 in Calm   0.2 mph 60 % 0.0 in 594.0 W/m2 CLR
13:47 18.3 °F 10.2 °F 1025.3 in NNE 3.2 mph 3.2 mph 59 % 0.0 in 591.0 W/m2 CLR
13:52 18.9 °F 10.9 °F 1025.3 in Calm     60 % 0.0 in 589.0 W/m2 CLR
13:57 18.9 °F 10.7 °F 1025.3 in Calm     59 % 0.0 in 584.0 W/m2 CLR
14:02 18.9 °F 10.7 °F 1024.9 in Calm     59 % 0.0 in 582.0 W/m2 CLR
14:07 18.3 °F 10.4 °F 1024.9 in Calm     60 % 0.0 in 577.0 W/m2 CLR
14:12 18.9 °F 10.9 °F 1024.9 in NNE 5.6 mph 5.6 mph 60 % 0.0 in 573.0 W/m2 CLR
14:17 18.3 °F 10.2 °F 1024.9 in NE 5.6 mph 5.6 mph 59 % 0.0 in 571.0 W/m2 CLR
14:22 19.4 °F 11.2 °F 1024.9 in Calm     59 % 0.0 in 563.0 W/m2 CLR
14:27 18.9 °F 10.9 °F 1024.9 in NNE 9.3 mph 9.3 mph 60 % 0.0 in 557.0 W/m2 CLR
14:32 18.9 °F 10.4 °F 1024.9 in NE 3.7 mph 3.7 mph 58 % 0.0 in 552.0 W/m2 CLR
14:37 18.9 °F 10.2 °F 1024.9 in Calm     57 % 0.0 in 543.0 W/m2 CLR
14:42 18.9 °F 10.7 °F 1024.9 in NE 9.3 mph 9.3 mph 59 % 0.0 in 536.0 W/m2 CLR
14:47 18.9 °F 10.2 °F 1024.6 in North 5.6 mph 5.6 mph 57 % 0.0 in 531.0 W/m2 CLR
14:52 19.4 °F 10.7 °F 1024.6 in NNE 4.8 mph 4.8 mph 57 % 0.0 in 522.0 W/m2 CLR
14:57 19.4 °F 10.7 °F 1024.6 in NNE 5.6 mph 5.6 mph 57 % 0.0 in 512.0 W/m2 CLR
15:02 19.4 °F 10.7 °F 1024.6 in ENE 3.2 mph 3.2 mph 57 % 0.0 in 506.0 W/m2 CLR
15:07 18.9 °F 10.4 °F 1024.6 in North 9.7 mph 9.7 mph 58 % 0.0 in 497.0 W/m2 CLR
15:12 19.4 °F 10.9 °F 1024.6 in NE 6.4 mph 6.4 mph 58 % 0.0 in 487.0 W/m2 CLR
15:17 19.4 °F 10.7 °F 1024.6 in NNE 13.0 mph 13.0 mph 57 % 0.0 in 476.0 W/m2 CLR
15:22 19.4 °F 10.7 °F 1024.6 in Calm     57 % 0.0 in 469.0 W/m2 CLR
15:27 19.4 °F 10.7 °F 1024.6 in NNE 6.4 mph 6.4 mph 57 % 0.0 in 461.0 W/m2 CLR
15:32 19.4 °F 10.4 °F 1024.6 in NNE 9.3 mph 9.3 mph 56 % 0.0 in 450.0 W/m2 CLR
15:37 19.4 °F 10.4 °F 1024.6 in NE 11.3 mph 11.3 mph 56 % 0.0 in 436.0 W/m2 CLR
15:42 19.4 °F 10.4 °F 1024.6 in North 11.1 mph 11.1 mph 56 % 0.0 in 425.0 W/m2 CLR
15:47 19.4 °F 10.4 °F 1024.6 in Calm     56 % 0.0 in 415.0 W/m2 CLR
15:52 20.0 °F 10.7 °F 1024.6 in Calm     55 % 0.0 in 406.0 W/m2 CLR
15:57 20.0 °F 10.7 °F 1024.6 in Calm     55 % 0.0 in 396.0 W/m2 CLR
16:02 19.4 °F 9.9 °F 1024.6 in North 9.3 mph 9.3 mph 54 % 0.0 in 381.0 W/m2 CLR
16:07 18.9 °F 9.9 °F 1024.6 in North 6.4 mph 6.4 mph 56 % 0.0 in 371.0 W/m2 CLR
16:12 19.4 °F 10.2 °F 1024.6 in NE 6.4 mph 6.4 mph 55 % 0.0 in 359.0 W/m2 CLR
16:17 19.4 °F 10.2 °F 1024.9 in NNE 3.7 mph 3.7 mph 55 % 0.0 in 345.0 W/m2 CLR
16:22 19.4 °F 10.2 °F 1024.6 in Calm     55 % 0.0 in 329.0 W/m2 CLR
16:27 19.4 °F 10.2 °F 1024.6 in North 14.8 mph 14.8 mph 55 % 0.0 in 316.0 W/m2 CLR
16:32 19.4 °F 9.9 °F 1024.6 in Calm     54 % 0.0 in 302.0 W/m2 CLR
16:38 19.4 °F 9.9 °F 1024.6 in Calm     54 % 0.0 in 288.0 W/m2 CLR
16:43 19.4 °F 9.9 °F 1024.6 in Calm     54 % 0.0 in 274.0 W/m2 CLR
16:48 18.9 °F 9.1 °F 1024.6 in Calm     53 % 0.0 in 258.0 W/m2 CLR
16:53 18.9 °F 9.1 °F 1024.6 in Calm     53 % 0.0 in 243.0 W/m2 CLR
16:58 18.9 °F 9.1 °F 1024.6 in Calm     53 % 0.0 in 223.0 W/m2 CLR
17:03 18.9 °F 9.1 °F 1024.6 in Calm     53 % 0.0 in 211.0 W/m2 CLR
17:08 18.9 °F 9.1 °F 1024.9 in Calm     53 % 0.0 in 188.0 W/m2 CLR
17:13 18.9 °F 9.4 °F 1024.6 in Calm     54 % 0.0 in 172.0 W/m2 CLR
17:18 18.9 °F 9.4 °F 1024.6 in Calm     54 % 0.0 in 167.0 W/m2 CLR
17:23 18.3 °F 8.8 °F 1024.6 in Calm     54 % 0.0 in 139.0 W/m2 CLR
17:28 18.3 °F 8.8 °F 1024.9 in Calm     54 % 0.0 in 121.0 W/m2 CLR
17:33 18.3 °F 9.1 °F 1024.9 in Calm     55 % 0.0 in 113.0 W/m2 CLR
17:38 17.8 °F 8.3 °F 1024.9 in Calm     54 % 0.0 in 47.0 W/m2 SCT
17:43 17.2 °F 7.8 °F 1024.9 in Calm     54 % 0.0 in 42.0 W/m2 BKN
17:48 16.7 °F 7.8 °F 1024.9 in Calm     56 % 0.0 in 40.0 W/m2 BKN
17:53 16.1 °F 7.3 °F 1024.9 in Calm     56 % 0.0 in 53.0 W/m2 SCT
17:58 15.6 °F 7.1 °F 1024.9 in Calm     57 % 0.0 in 44.0 W/m2 BKN
18:03 15.6 °F 7.3 °F 1024.9 in Calm     58 % 0.0 in 39.0 W/m2 BKN
18:08 15.0 °F 6.8 °F 1024.9 in Calm     58 % 0.0 in 28.0 W/m2 BKN
18:13 14.4 °F 6.3 °F 1024.9 in Calm     58 % 0.0 in 23.0 W/m2 BKN
18:18 14.4 °F 6.3 °F 1024.9 in Calm     58 % 0.0 in 19.0 W/m2 BKN
18:23 13.9 °F 6.0 °F 1024.9 in Calm     59 % 0.0 in 16.0 W/m2 BKN
18:28 13.9 °F 6.0 °F 1024.9 in Calm     59 % 0.0 in 11.0 W/m2 BKN
18:33 13.3 °F 5.7 °F 1025.3 in Calm     60 % 0.0 in 5.0 W/m2 OVC
18:38 13.3 °F 5.9 °F 1025.3 in Calm     61 % 0.0 in 0.0 W/m2 OVC
18:43 12.8 °F 5.4 °F 1025.3 in Calm     61 % 0.0 in 0.0 W/m2 OVC
18:48 13.3 °F 6.4 °F 1025.3 in Calm     63 % 0.0 in 0.0 W/m2 CLR
18:53 13.3 °F 6.7 °F 1025.3 in Calm     64 % 0.0 in 0.0 W/m2 CLR
18:58 12.8 °F 6.3 °F 1025.3 in Calm     65 % 0.0 in 0.0 W/m2 CLR
19:03 12.8 °F 6.8 °F 1025.3 in Calm     67 % 0.0 in 0.0 W/m2 CLR
19:08 12.8 °F 7.0 °F 1025.6 in Calm     68 % 0.0 in 0.0 W/m2 CLR
19:13 12.2 °F 6.9 °F 1025.6 in Calm     70 % 0.0 in 0.0 W/m2 CLR
19:18 12.2 °F 7.3 °F 1025.6 in Calm     72 % 0.0 in 0.0 W/m2 CLR
19:23 11.7 °F 7.2 °F 1025.6 in Calm     74 % 0.0 in 0.0 W/m2 CLR
19:28 11.7 °F 7.4 °F 1025.6 in Calm     75 % 0.0 in 0.0 W/m2 CLR
19:33 11.7 °F 7.4 °F 1026.0 in Calm     75 % 0.0 in 0.0 W/m2 CLR
19:38 11.1 °F 7.1 °F 1026.0 in Calm     76 % 0.0 in 0.0 W/m2 CLR
19:43 11.1 °F 7.2 °F 1026.0 in Calm     77 % 0.0 in 0.0 W/m2 CLR
19:48 10.6 °F 6.9 °F 1026.0 in Calm     78 % 0.0 in 0.0 W/m2 CLR
19:53 10.6 °F 7.1 °F 1026.0 in Calm     79 % 0.0 in 0.0 W/m2 CLR
19:58 10.6 °F 7.2 °F 1026.0 in Calm     80 % 0.0 in 0.0 W/m2 CLR
20:03 10.6 °F 7.2 °F 1026.3 in Calm     80 % 0.0 in 0.0 W/m2 CLR
20:08 10.6 °F 7.2 °F 1026.3 in Calm     80 % 0.0 in 0.0 W/m2 CLR
20:13 10.0 °F 6.7 °F 1026.3 in Calm     80 % 0.0 in 0.0 W/m2 CLR
20:18 9.4 °F 6.2 °F 1026.3 in Calm     80 % 0.0 in 0.0 W/m2 CLR
20:23 9.4 °F 6.3 °F 1026.3 in Calm     81 % 0.0 in 0.0 W/m2 CLR
20:28 9.4 °F 6.5 °F 1026.6 in Calm     82 % 0.0 in 0.0 W/m2 CLR
20:33 8.9 °F 6.0 °F 1026.6 in Calm     82 % 0.0 in 0.0 W/m2 CLR
20:38 8.9 °F 6.0 °F 1026.6 in Calm     82 % 0.0 in 0.0 W/m2 CLR
20:43 8.9 °F 6.2 °F 1026.6 in Calm     83 % 0.0 in 0.0 W/m2 CLR
20:48 9.4 °F 6.7 °F 1026.6 in Calm     83 % 0.0 in 0.0 W/m2 CLR
20:53 9.4 °F 6.9 °F 1026.6 in Calm     84 % 0.0 in 0.0 W/m2 CLR
20:58 8.9 °F 6.3 °F 1026.6 in Calm     84 % 0.0 in 0.0 W/m2 CLR
21:03 8.9 °F 6.3 °F 1026.6 in Calm     84 % 0.0 in 0.0 W/m2 CLR
21:08 8.9 °F 6.3 °F 1026.6 in Calm     84 % 0.0 in 0.0 W/m2 CLR
21:13 9.4 °F 6.9 °F 1026.6 in Calm     84 % 0.0 in 0.0 W/m2 CLR
21:18 8.9 °F 6.5 °F 1026.6 in Calm     85 % 0.0 in 0.0 W/m2 CLR
21:23 8.9 °F 6.5 °F 1026.6 in Calm     85 % 0.0 in 0.0 W/m2 CLR
21:28 8.9 °F 6.5 °F 1026.6 in Calm     85 % 0.0 in 0.0 W/m2 CLR
21:33 8.9 °F 6.5 °F 1026.6 in Calm     85 % 0.0 in 0.0 W/m2 CLR
21:38 8.9 °F 6.5 °F 1027.0 in Calm     85 % 0.0 in 0.0 W/m2 CLR
21:43 8.3 °F 5.9 °F 1027.0 in Calm     85 % 0.0 in 0.0 W/m2 CLR
21:49 8.3 °F 5.9 °F 1027.0 in Calm     85 % 0.0 in 0.0 W/m2 CLR
21:54 7.8 °F 5.6 °F 1027.0 in Calm     86 % 0.0 in 0.0 W/m2 CLR
21:59 7.8 °F 5.6 °F 1027.0 in Calm     86 % 0.0 in 0.0 W/m2 CLR
22:04 7.8 °F 5.6 °F 1027.0 in Calm     86 % 0.0 in 0.0 W/m2 CLR
22:09 7.8 °F 5.7 °F 1027.0 in Calm     87 % 0.0 in 0.0 W/m2 CLR
22:14 7.8 °F 5.6 °F 1027.3 in Calm     86 % 0.0 in 0.0 W/m2 CLR
22:19 7.8 °F 5.7 °F 1027.3 in Calm     87 % 0.0 in 0.0 W/m2 CLR
22:24 7.8 °F 5.6 °F 1027.3 in Calm     86 % 0.0 in 0.0 W/m2 CLR
22:29 7.8 °F 5.6 °F 1027.3 in Calm     86 % 0.0 in 0.0 W/m2 CLR
22:34 7.2 °F 5.1 °F 1027.3 in Calm     86 % 0.0 in 0.0 W/m2 CLR
22:39 7.2 °F 5.2 °F 1027.3 in Calm     87 % 0.0 in 0.0 W/m2 CLR
22:44 7.2 °F 5.2 °F 1027.3 in Calm     87 % 0.0 in 0.0 W/m2 CLR
22:49 7.2 °F 5.2 °F 1027.3 in Calm     87 % 0.0 in 0.0 W/m2 CLR
22:54 7.2 °F 5.2 °F 1027.3 in Calm     87 % 0.0 in 0.0 W/m2 CLR
22:59 7.2 °F 5.2 °F 1027.3 in Calm     87 % 0.0 in 0.0 W/m2 CLR
23:04 7.2 °F 5.2 °F 1027.7 in Calm     87 % 0.0 in 0.0 W/m2 CLR
23:09 7.2 °F 5.2 °F 1027.3 in Calm     87 % 0.0 in 0.0 W/m2 CLR
23:14 7.2 °F 5.2 °F 1027.3 in Calm     87 % 0.0 in 0.0 W/m2 CLR
23:19 6.7 °F 4.8 °F 1027.3 in Calm     88 % 0.0 in 0.0 W/m2 CLR
23:24 6.7 °F 4.8 °F 1027.3 in Calm     88 % 0.0 in 0.0 W/m2 CLR
23:29 6.7 °F 4.8 °F 1027.3 in Calm     88 % 0.0 in 0.0 W/m2 CLR
23:34 6.7 °F 4.8 °F 1027.3 in Calm     88 % 0.0 in 0.0 W/m2 CLR
23:39 6.7 °F 4.8 °F 1027.3 in Calm     88 % 0.0 in 0.0 W/m2 CLR
23:44 6.7 °F 5.0 °F 1027.3 in Calm     89 % 0.0 in 0.0 W/m2 CLR
23:49 6.7 °F 5.0 °F 1027.3 in Calm     89 % 0.0 in 0.0 W/m2 CLR
23:54 6.7 °F 5.0 °F 1027.3 in Calm     89 % 0.0 in 0.0 W/m2 CLR
23:59 6.7 °F 5.0 °F 1027.3 in Calm     89 % 0.0 in 0.0 W/m2 CLR
Lo Temps de Massalio
Compliments of Weather Underground - 1.25 mb